Terminal Aerodrome Forecast
Issued by NWS Norman, OK

Home | Current Version | Previous Version | Text Only | Print | Product List | Glossary On
Versions: 1 2 3 4 5 6 7 8 9 10 11 12
000
FTUS44 KOUN 110527
TAFSPS
TAF
KSPS 110527Z 1106/1206 17017G27KT P6SM OVC025
     FM111000 18013KT P6SM OVC009
     FM111500 20016KT P6SM SCT040 BKN250
     FM111800 22012KT P6SM SCT030 BKN250
     FM112100 32011KT P6SM BKN250=

USA.gov is the U.S. government's official web portal to all federal, state and local government web resources and services.